createdAt,value
2022-08-01T00:00:06.696Z,19.80
2022-08-01T00:01:06.658Z,19.80
2022-08-01T00:02:06.976Z,19.71
2022-08-01T00:03:06.585Z,19.64
2022-08-01T00:04:06.549Z,19.72
2022-08-01T00:05:06.513Z,19.75
2022-08-01T00:06:06.473Z,19.75
2022-08-01T00:07:06.442Z,19.78
2022-08-01T00:08:06.413Z,19.85
2022-08-01T00:09:06.366Z,19.68
2022-08-01T00:10:06.357Z,19.76
2022-08-01T00:11:06.295Z,19.80
2022-08-01T00:12:06.254Z,19.70
2022-08-01T00:13:06.221Z,19.75
2022-08-01T00:14:06.183Z,19.71
2022-08-01T00:15:06.154Z,19.75
2022-08-01T00:16:06.118Z,19.68
2022-08-01T00:17:07.536Z,19.71
2022-08-01T00:18:06.035Z,19.72
2022-08-01T00:19:05.999Z,19.71
2022-08-01T00:20:05.962Z,19.71
2022-08-01T00:21:05.927Z,19.58
2022-08-01T00:22:06.261Z,19.71
2022-08-01T00:23:05.857Z,19.71
2022-08-01T00:24:05.813Z,19.70
2022-08-01T00:25:05.779Z,19.67
2022-08-01T00:26:05.744Z,19.71
2022-08-01T00:27:05.717Z,19.70
2022-08-01T00:28:05.670Z,19.68
2022-08-01T00:29:06.590Z,19.61
2022-08-01T00:30:10.687Z,19.70
2022-08-01T00:31:05.559Z,19.70
2022-08-01T00:32:05.918Z,19.71
2022-08-01T00:33:05.487Z,19.71
2022-08-01T00:34:05.451Z,19.71
2022-08-01T00:35:05.416Z,19.76
2022-08-01T00:36:05.386Z,19.67
2022-08-01T00:37:05.341Z,19.72
2022-08-01T00:38:05.318Z,19.64
2022-08-01T00:39:05.275Z,19.68
2022-08-01T00:40:05.241Z,19.64
2022-08-01T00:41:05.194Z,19.75
2022-08-01T00:42:05.548Z,19.62
2022-08-01T00:43:05.137Z,19.65
2022-08-01T00:44:05.085Z,19.65
2022-08-01T00:45:05.048Z,19.60
2022-08-01T00:46:05.023Z,19.78
2022-08-01T00:47:04.974Z,19.55
2022-08-01T00:48:04.937Z,19.65
2022-08-01T00:49:04.931Z,19.62
2022-08-01T00:50:04.874Z,19.60
2022-08-01T00:51:04.828Z,19.52
2022-08-01T00:52:05.110Z,19.67
2022-08-01T00:53:04.756Z,19.64
2022-08-01T00:54:04.711Z,19.55
2022-08-01T00:55:04.697Z,19.64
2022-08-01T00:56:04.646Z,19.55
2022-08-01T00:57:04.626Z,19.58
2022-08-01T00:58:06.092Z,19.57
2022-08-01T00:59:04.537Z,19.53
2022-08-01T01:00:04.496Z,19.47
2022-08-01T01:01:04.510Z,19.47
2022-08-01T01:02:04.769Z,19.53
2022-08-01T01:03:04.412Z,19.55
2022-08-01T01:04:08.519Z,19.43
2022-08-01T01:05:04.317Z,19.46
2022-08-01T01:06:04.277Z,19.49
2022-08-01T01:07:04.243Z,19.38
2022-08-01T01:08:04.202Z,19.46
2022-08-01T01:09:04.184Z,19.50
2022-08-01T01:10:04.136Z,19.45
2022-08-01T01:11:04.094Z,19.32
2022-08-01T01:12:04.609Z,19.49
2022-08-01T01:13:04.021Z,19.45
2022-08-01T01:14:03.983Z,19.43
2022-08-01T01:15:03.971Z,19.46
2022-08-01T01:16:03.910Z,19.49
2022-08-01T01:17:03.878Z,19.45
2022-08-01T01:18:03.843Z,19.38
2022-08-01T01:19:03.809Z,19.40
2022-08-01T01:20:03.763Z,19.43
2022-08-01T01:21:03.752Z,19.47
2022-08-01T01:22:03.960Z,19.45
2022-08-01T01:23:03.658Z,19.47
2022-08-01T01:24:03.614Z,19.49
2022-08-01T01:25:03.583Z,19.39
2022-08-01T01:26:03.543Z,19.40
2022-08-01T01:27:03.520Z,19.47
2022-08-01T01:28:03.489Z,19.45
2022-08-01T01:29:03.432Z,19.40
2022-08-01T01:30:03.399Z,19.45
2022-08-01T01:31:03.361Z,19.42
2022-08-01T01:32:03.682Z,19.42
2022-08-01T01:33:03.285Z,19.40
2022-08-01T01:34:03.258Z,19.27
2022-08-01T01:35:03.212Z,19.27
2022-08-01T01:36:03.178Z,19.42
2022-08-01T01:37:03.137Z,19.40
2022-08-01T01:38:03.101Z,19.42
2022-08-01T01:39:03.078Z,19.43
2022-08-01T01:40:03.026Z,19.46
2022-08-01T01:41:02.992Z,19.40
2022-08-01T01:42:03.195Z,19.38
2022-08-01T01:43:02.919Z,19.39
2022-08-01T01:44:02.879Z,19.46
2022-08-01T01:45:02.870Z,19.47
2022-08-01T01:46:02.821Z,19.49
2022-08-01T01:47:02.790Z,19.38
2022-08-01T01:48:02.738Z,19.45
2022-08-01T01:49:02.759Z,19.45
2022-08-01T01:50:02.669Z,19.47
2022-08-01T01:51:02.637Z,19.35
2022-08-01T01:52:03.167Z,19.42
2022-08-01T01:53:02.553Z,19.38
2022-08-01T01:54:02.514Z,19.42
2022-08-01T01:55:02.490Z,19.46
2022-08-01T01:56:02.440Z,19.45
2022-08-01T01:57:02.416Z,19.47
2022-08-01T01:58:02.366Z,19.39
2022-08-01T01:59:02.331Z,19.52
2022-08-01T02:00:02.298Z,19.47
2022-08-01T02:01:02.885Z,19.45
2022-08-01T02:02:05.972Z,19.42
2022-08-01T02:03:02.254Z,19.38
2022-08-01T02:04:02.148Z,19.52
2022-08-01T02:05:02.122Z,19.49
2022-08-01T02:06:02.076Z,19.50
2022-08-01T02:07:02.039Z,19.46
2022-08-01T02:08:01.998Z,19.49
2022-08-01T02:09:01.978Z,19.40
2022-08-01T02:10:01.933Z,19.46
2022-08-01T02:11:01.894Z,19.50
2022-08-01T02:12:08.133Z,19.49
2022-08-01T02:13:01.820Z,19.47
2022-08-01T02:14:01.780Z,19.55
2022-08-01T02:15:01.762Z,19.38
2022-08-01T02:16:01.708Z,19.49
2022-08-01T02:17:01.672Z,19.45
2022-08-01T02:18:01.633Z,19.52
2022-08-01T02:19:01.596Z,19.47
2022-08-01T02:20:01.576Z,19.47
2022-08-01T02:21:01.523Z,19.52
2022-08-01T02:22:01.488Z,19.43
2022-08-01T02:23:01.458Z,19.52
2022-08-01T02:24:05.726Z,19.50
2022-08-01T02:25:01.378Z,19.50
2022-08-01T02:26:10.872Z,19.55
2022-08-01T02:27:01.304Z,19.34
2022-08-01T02:28:01.267Z,19.47
2022-08-01T02:29:01.244Z,19.43
2022-08-01T02:30:01.204Z,19.43
2022-08-01T02:31:01.158Z,19.42
2022-08-01T02:32:01.139Z,19.38
2022-08-01T02:33:01.086Z,19.38
2022-08-01T02:34:01.046Z,19.30
2022-08-01T02:35:01.012Z,19.32
2022-08-01T02:36:30.741Z,19.45
2022-08-01T02:37:00.952Z,19.39
2022-08-01T02:38:00.916Z,19.38
2022-08-01T02:39:00.877Z,19.35
2022-08-01T02:40:00.823Z,19.28
2022-08-01T02:41:00.794Z,19.46
2022-08-01T02:42:00.754Z,19.40
2022-08-01T02:43:00.721Z,19.38
2022-08-01T02:44:00.691Z,19.34
2022-08-01T02:45:00.644Z,19.35
2022-08-01T02:46:00.612Z,19.38
2022-08-01T02:47:00.584Z,19.32
2022-08-01T02:48:00.534Z,19.39
2022-08-01T02:49:00.623Z,19.38
2022-08-01T02:50:00.472Z,19.35
2022-08-01T02:51:00.427Z,19.47
2022-08-01T02:52:00.394Z,19.27
2022-08-01T02:53:00.352Z,19.43
2022-08-01T02:54:00.314Z,19.40
2022-08-01T02:55:00.293Z,19.45
2022-08-01T02:56:00.242Z,19.38
2022-08-01T02:57:00.206Z,19.43
2022-08-01T02:58:00.843Z,19.46
2022-08-01T02:59:00.137Z,19.40
2022-08-01T03:00:00.127Z,19.46
2022-08-01T03:01:00.072Z,19.39
2022-08-01T03:02:00.643Z,19.43
2022-08-01T03:02:59.997Z,19.39
2022-08-01T03:03:59.953Z,19.39
2022-08-01T03:04:59.917Z,19.38
2022-08-01T03:05:59.874Z,19.31
2022-08-01T03:06:59.843Z,19.45
2022-08-01T03:08:03.811Z,19.43
2022-08-01T03:08:59.778Z,19.35
2022-08-01T03:09:59.731Z,19.30
2022-08-01T03:10:59.694Z,19.40
2022-08-01T03:11:59.665Z,19.35
2022-08-01T03:12:59.623Z,19.34
2022-08-01T03:13:59.582Z,19.32
2022-08-01T03:15:08.418Z,19.38
2022-08-01T03:15:59.508Z,19.23
2022-08-01T03:16:59.474Z,19.35
2022-08-01T03:17:59.436Z,19.32
2022-08-01T03:18:59.403Z,19.30
2022-08-01T03:19:59.368Z,19.35
2022-08-01T03:20:59.350Z,19.46
2022-08-01T03:21:59.302Z,19.30
2022-08-01T03:22:59.256Z,19.35
2022-08-01T03:23:59.215Z,19.46
2022-08-01T03:24:59.180Z,19.38
2022-08-01T03:25:59.145Z,19.39
2022-08-01T03:26:59.109Z,19.40
2022-08-01T03:27:59.077Z,19.31
2022-08-01T03:28:59.034Z,19.39
2022-08-01T03:29:59.000Z,19.47
2022-08-01T03:30:58.959Z,19.32
2022-08-01T03:31:58.935Z,19.34
2022-08-01T03:32:58.885Z,19.39
2022-08-01T03:34:01.757Z,19.38
2022-08-01T03:34:58.812Z,19.40
2022-08-01T03:35:58.773Z,19.43
2022-08-01T03:36:58.742Z,19.39
2022-08-01T03:38:16.256Z,19.32
2022-08-01T03:38:58.664Z,19.46
2022-08-01T03:39:58.630Z,19.45
2022-08-01T03:40:58.593Z,19.34
2022-08-01T03:41:58.555Z,19.46
2022-08-01T03:42:58.522Z,19.42
2022-08-01T03:43:58.669Z,19.42
2022-08-01T03:44:58.446Z,19.40
2022-08-01T03:45:58.410Z,19.47
2022-08-01T03:46:58.375Z,19.45
2022-08-01T03:47:58.348Z,19.40
2022-08-01T03:48:58.330Z,19.40
2022-08-01T03:49:58.266Z,19.45
2022-08-01T03:50:58.229Z,19.46
2022-08-01T03:51:58.189Z,19.39
2022-08-01T03:52:58.155Z,19.43
2022-08-01T03:53:58.138Z,19.39
2022-08-01T03:54:58.087Z,19.40
2022-08-01T03:55:58.048Z,19.39
2022-08-01T03:56:58.006Z,19.40
2022-08-01T03:57:57.971Z,19.42
2022-08-01T03:58:57.934Z,19.46
2022-08-01T03:59:57.906Z,19.42
2022-08-01T04:00:57.910Z,19.35
2022-08-01T04:01:57.829Z,19.45
2022-08-01T04:02:57.786Z,19.49
2022-08-01T04:03:57.751Z,19.45
2022-08-01T04:04:57.712Z,19.34
2022-08-01T04:05:57.713Z,19.45
2022-08-01T04:06:57.641Z,19.42
2022-08-01T04:07:57.604Z,19.50
2022-08-01T04:08:57.567Z,19.49
2022-08-01T04:09:57.533Z,19.45
2022-08-01T04:10:57.511Z,19.42
2022-08-01T04:11:57.457Z,19.53
2022-08-01T04:12:57.422Z,19.47
2022-08-01T04:13:57.740Z,19.50
2022-08-01T04:14:57.351Z,19.45
2022-08-01T04:15:57.317Z,19.58
2022-08-01T04:16:57.300Z,19.53
2022-08-01T04:17:57.240Z,19.47
2022-08-01T04:18:57.203Z,19.39
2022-08-01T04:19:57.164Z,19.52
2022-08-01T04:20:57.128Z,19.46
2022-08-01T04:21:57.093Z,19.52
2022-08-01T04:22:57.081Z,19.52
2022-08-01T04:23:57.021Z,19.50
2022-08-01T04:24:57.250Z,19.53
2022-08-01T04:25:56.949Z,19.55
2022-08-01T04:26:56.910Z,19.38
2022-08-01T04:27:56.887Z,19.31
2022-08-01T04:28:56.846Z,19.50
2022-08-01T04:29:56.803Z,19.49
2022-08-01T04:31:01.588Z,19.43
2022-08-01T04:31:56.727Z,19.57
2022-08-01T04:32:56.705Z,19.47
2022-08-01T04:33:56.653Z,19.49
2022-08-01T04:34:56.627Z,19.61
2022-08-01T04:36:01.503Z,19.57
2022-08-01T04:36:56.541Z,19.58
2022-08-01T04:37:56.506Z,19.57
2022-08-01T04:38:56.466Z,19.71
2022-08-01T04:39:56.432Z,19.61
2022-08-01T04:40:56.409Z,19.58
2022-08-01T04:41:56.359Z,19.71
2022-08-01T04:42:56.334Z,19.62
2022-08-01T04:43:56.297Z,19.71
2022-08-01T04:44:56.248Z,19.76
2022-08-01T04:45:56.212Z,19.72
2022-08-01T04:46:56.174Z,19.76
2022-08-01T04:47:56.137Z,19.76
2022-08-01T04:48:56.160Z,19.76
2022-08-01T04:49:56.076Z,19.76
2022-08-01T04:50:56.027Z,19.80
2022-08-01T04:51:55.992Z,19.75
2022-08-01T04:52:55.953Z,19.65
2022-08-01T04:53:55.917Z,19.78
2022-08-01T04:54:55.880Z,19.71
2022-08-01T04:55:55.855Z,19.79
2022-08-01T04:56:55.806Z,19.82
2022-08-01T04:57:55.771Z,19.80
2022-08-01T04:58:55.734Z,19.76
2022-08-01T04:59:55.698Z,19.83
2022-08-01T05:00:55.686Z,19.80
2022-08-01T05:01:55.637Z,19.78
2022-08-01T05:02:55.611Z,19.82
2022-08-01T05:03:55.553Z,19.87
2022-08-01T05:04:55.516Z,19.85
2022-08-01T05:05:55.484Z,19.82
2022-08-01T05:06:55.444Z,19.80
2022-08-01T05:07:55.418Z,19.86
2022-08-01T05:08:55.371Z,19.70
2022-08-01T05:09:55.332Z,19.65
2022-08-01T05:10:55.296Z,19.71
2022-08-01T05:11:55.271Z,19.71
2022-08-01T05:12:55.222Z,19.67
2022-08-01T05:13:55.209Z,19.76
2022-08-01T05:14:55.151Z,19.62
2022-08-01T05:15:55.119Z,19.64
2022-08-01T05:16:55.077Z,19.68
2022-08-01T05:17:55.043Z,19.61
2022-08-01T05:18:55.005Z,19.71
2022-08-01T05:19:54.977Z,19.72
2022-08-01T05:20:54.932Z,19.72
2022-08-01T05:21:54.894Z,19.71
2022-08-01T05:22:54.861Z,19.75
2022-08-01T05:23:54.823Z,19.68
2022-08-01T05:24:54.796Z,19.67
2022-08-01T05:25:57.350Z,19.61
2022-08-01T05:26:54.714Z,19.78
2022-08-01T05:27:54.675Z,19.61
2022-08-01T05:28:55.388Z,19.72
2022-08-01T05:29:54.602Z,19.72
2022-08-01T05:30:54.564Z,19.64
2022-08-01T05:31:54.538Z,19.68
2022-08-01T05:32:54.504Z,19.67
2022-08-01T05:33:54.466Z,19.67
2022-08-01T05:34:54.422Z,19.80
2022-08-01T05:35:54.390Z,19.68
2022-08-01T05:36:57.701Z,19.79
2022-08-01T05:37:54.339Z,19.71
2022-08-01T05:38:54.273Z,19.79
2022-08-01T05:39:54.238Z,19.80
2022-08-01T05:40:54.202Z,19.71
2022-08-01T05:41:54.170Z,19.83
2022-08-01T05:42:54.137Z,19.83
2022-08-01T05:43:54.103Z,19.80
2022-08-01T05:44:54.056Z,19.83
2022-08-01T05:45:54.020Z,19.89
2022-08-01T05:46:53.982Z,19.86
2022-08-01T05:47:53.950Z,19.97
2022-08-01T05:48:53.961Z,20.01
2022-08-01T05:49:53.902Z,20.05
2022-08-01T05:50:58.069Z,20.05
2022-08-01T05:51:53.807Z,20.15
2022-08-01T05:52:53.773Z,20.12
2022-08-01T05:53:53.742Z,20.10
2022-08-01T05:54:53.707Z,20.26
2022-08-01T05:55:53.657Z,20.15
2022-08-01T05:56:53.628Z,20.25
2022-08-01T05:57:53.602Z,20.25
2022-08-01T05:58:53.548Z,20.27
2022-08-01T05:59:53.512Z,20.37
2022-08-01T06:00:53.477Z,20.31
2022-08-01T06:01:53.519Z,20.37
2022-08-01T06:02:53.405Z,20.34
2022-08-01T06:03:53.387Z,20.30
2022-08-01T06:04:53.333Z,20.41
2022-08-01T06:05:53.302Z,20.38
2022-08-01T06:06:53.260Z,20.38
2022-08-01T06:07:53.248Z,20.41
2022-08-01T06:08:53.187Z,20.44
2022-08-01T06:09:53.152Z,20.27
2022-08-01T06:10:53.116Z,20.31
2022-08-01T06:11:53.077Z,20.22
2022-08-01T06:12:53.045Z,20.27
2022-08-01T06:13:53.025Z,20.25
2022-08-01T06:14:52.977Z,20.33
2022-08-01T06:15:52.955Z,20.27
2022-08-01T06:16:52.908Z,20.35
2022-08-01T06:17:52.888Z,20.40
2022-08-01T06:18:56.526Z,20.33
2022-08-01T06:19:52.796Z,20.33
2022-08-01T06:20:52.755Z,20.41
2022-08-01T06:21:52.731Z,20.38
2022-08-01T06:22:52.808Z,20.42
2022-08-01T06:23:52.674Z,20.44
2022-08-01T06:24:52.630Z,20.41
2022-08-01T06:25:52.578Z,20.40
2022-08-01T06:26:52.548Z,20.51
2022-08-01T06:27:52.511Z,20.51
2022-08-01T06:28:52.494Z,20.56
2022-08-01T06:29:54.101Z,20.53
2022-08-01T06:33:19.581Z,20.48
2022-08-01T06:34:19.539Z,20.61
2022-08-01T06:35:19.539Z,20.76
2022-08-01T06:36:19.466Z,20.83
2022-08-01T06:37:19.432Z,20.85
2022-08-01T06:38:19.413Z,20.94
2022-08-01T06:39:19.358Z,21.01
2022-08-01T06:40:19.329Z,21.15
2022-08-01T06:41:19.301Z,21.24
2022-08-01T06:42:19.255Z,21.13
2022-08-01T06:43:19.219Z,21.24
2022-08-01T06:44:19.181Z,21.21
2022-08-01T06:45:19.166Z,21.13
2022-08-01T06:46:19.150Z,21.15
2022-08-01T06:47:19.080Z,21.21
2022-08-01T06:48:19.041Z,21.27
2022-08-01T06:49:19.056Z,21.27
2022-08-01T06:50:18.970Z,21.38
2022-08-01T06:51:18.935Z,21.37
2022-08-01T06:52:18.911Z,21.52
2022-08-01T06:53:18.866Z,21.70
2022-08-01T06:54:18.829Z,22.23
2022-08-01T06:55:18.794Z,23.06
2022-08-01T06:56:18.763Z,23.39
2022-08-01T06:57:18.726Z,23.50
2022-08-01T06:58:18.710Z,23.34
2022-08-01T06:59:18.671Z,23.35
2022-08-01T07:00:18.619Z,23.68
2022-08-01T07:01:18.694Z,24.16
2022-08-01T07:02:18.553Z,24.77
2022-08-01T07:03:18.513Z,25.94
2022-08-01T07:04:18.485Z,26.44
2022-08-01T07:05:18.461Z,25.91
2022-08-01T07:06:18.441Z,25.36
2022-08-01T07:07:18.422Z,25.29
2022-08-01T07:08:18.345Z,26.28
2022-08-01T07:09:18.310Z,26.27
2022-08-01T07:10:18.277Z,25.98
2022-08-01T07:11:18.258Z,25.71
2022-08-01T07:12:18.220Z,25.94
2022-08-01T07:13:18.176Z,26.19
2022-08-01T07:14:18.139Z,26.29
2022-08-01T07:15:18.108Z,26.56
2022-08-01T07:16:18.073Z,26.50
2022-08-01T07:17:18.059Z,26.56
2022-08-01T07:18:18.005Z,26.54
2022-08-01T07:19:17.985Z,26.53
2022-08-01T07:20:17.941Z,26.59
2022-08-01T07:21:40.666Z,26.17
2022-08-01T07:22:23.617Z,26.00
2022-08-01T07:23:17.843Z,25.78
2022-08-01T07:24:19.496Z,25.72
2022-08-01T07:25:18.042Z,25.61
2022-08-01T07:26:17.741Z,25.85
2022-08-01T07:27:25.608Z,25.79
2022-08-01T07:28:17.675Z,26.04
2022-08-01T07:29:17.643Z,26.13
2022-08-01T07:30:17.609Z,26.06
2022-08-01T07:31:17.590Z,26.12
2022-08-01T07:32:17.544Z,25.97
2022-08-01T07:33:17.510Z,26.60
2022-08-01T07:34:17.476Z,26.97
2022-08-01T07:35:17.448Z,26.75
2022-08-01T07:36:17.419Z,26.29
2022-08-01T07:37:17.389Z,25.67
2022-08-01T07:38:17.345Z,25.23
2022-08-01T07:39:17.327Z,24.89
2022-08-01T07:40:17.281Z,24.63
2022-08-01T07:41:17.252Z,24.56
2022-08-01T07:42:17.232Z,24.24
2022-08-01T07:43:17.186Z,24.26
2022-08-01T07:44:17.162Z,24.21
2022-08-01T07:45:17.120Z,24.26
2022-08-01T07:46:17.098Z,24.30
2022-08-01T07:47:17.051Z,24.23
2022-08-01T07:48:17.018Z,24.37
2022-08-01T07:49:17.038Z,24.52
2022-08-01T07:50:16.951Z,24.46
2022-08-01T07:51:16.929Z,24.74
2022-08-01T07:52:17.038Z,24.84
2022-08-01T07:53:16.856Z,25.04
2022-08-01T07:54:16.823Z,24.99
2022-08-01T07:55:16.942Z,25.05
2022-08-01T07:56:16.757Z,24.90
2022-08-01T07:57:16.736Z,24.80
2022-08-01T07:58:16.689Z,24.64
2022-08-01T07:59:17.489Z,24.83
2022-08-01T08:00:16.622Z,24.83
2022-08-01T08:01:16.591Z,24.87
2022-08-01T08:02:16.611Z,24.94
2022-08-01T08:03:16.532Z,24.94
2022-08-01T08:04:16.491Z,25.05
2022-08-01T08:05:16.456Z,24.98
2022-08-01T08:06:16.422Z,24.84
2022-08-01T08:07:16.396Z,25.09
2022-08-01T08:08:16.358Z,25.08
2022-08-01T08:09:16.333Z,25.09
2022-08-01T08:10:16.290Z,25.54
2022-08-01T08:11:16.474Z,25.36
2022-08-01T08:12:16.226Z,25.53
2022-08-01T08:13:16.200Z,25.54
2022-08-01T08:14:16.172Z,25.97
2022-08-01T08:15:16.160Z,26.21
2022-08-01T08:16:16.093Z,26.50
2022-08-01T08:17:16.062Z,27.02
2022-08-01T08:18:16.062Z,27.16
2022-08-01T08:19:16.004Z,27.30
2022-08-01T08:20:15.965Z,27.38
2022-08-01T08:21:15.957Z,27.50
2022-08-01T08:22:15.901Z,27.18
2022-08-01T08:23:15.866Z,26.94
2022-08-01T08:24:15.834Z,26.94
2022-08-01T08:25:15.802Z,27.25
2022-08-01T08:26:15.778Z,28.20
2022-08-01T08:27:15.742Z,28.87
2022-08-01T08:28:15.706Z,29.11
2022-08-01T08:29:15.673Z,28.97
2022-08-01T08:30:15.883Z,28.48
2022-08-01T08:31:25.242Z,28.25
2022-08-01T08:32:15.586Z,27.66
2022-08-01T08:33:15.542Z,27.48
2022-08-01T08:34:15.510Z,27.40
2022-08-01T08:35:22.947Z,27.03
2022-08-01T08:36:15.445Z,26.73
2022-08-01T08:37:15.483Z,26.31
2022-08-01T08:38:15.401Z,25.97
2022-08-01T08:39:15.353Z,25.64
2022-08-01T08:40:15.319Z,25.54
2022-08-01T08:41:20.666Z,25.49
2022-08-01T08:42:15.257Z,25.53
2022-08-01T08:43:15.227Z,25.51
2022-08-01T08:44:15.200Z,25.63
2022-08-01T08:45:15.171Z,25.78
2022-08-01T08:46:15.126Z,25.93
2022-08-01T08:47:19.750Z,26.08
2022-08-01T08:48:15.427Z,26.21
2022-08-01T08:49:15.204Z,26.34
2022-08-01T08:50:15.038Z,26.29
2022-08-01T08:51:14.972Z,26.97
2022-08-01T08:52:14.933Z,27.03
2022-08-01T08:53:18.592Z,27.28
2022-08-01T08:54:15.071Z,27.34
2022-08-01T08:55:15.031Z,28.01
2022-08-01T08:56:14.804Z,28.74
2022-08-01T08:57:14.777Z,28.50
2022-08-01T08:58:14.741Z,28.13
2022-08-01T08:59:14.718Z,28.55
2022-08-01T09:00:14.677Z,29.39
2022-08-01T09:01:14.673Z,29.62
2022-08-01T09:02:14.909Z,28.70
2022-08-01T09:03:14.650Z,28.35
2022-08-01T09:04:14.550Z,28.24
2022-08-01T09:05:19.245Z,27.81
2022-08-01T09:06:14.500Z,27.05
2022-08-01T09:07:14.462Z,26.60
2022-08-01T09:08:14.423Z,26.32
2022-08-01T09:09:14.393Z,25.78
2022-08-01T09:10:14.363Z,25.26
2022-08-01T09:11:22.602Z,25.16
2022-08-01T09:12:14.321Z,24.94
2022-08-01T09:13:14.268Z,24.99
2022-08-01T09:14:14.698Z,25.05
2022-08-01T09:15:23.588Z,25.17
2022-08-01T09:16:14.175Z,25.94
2022-08-01T09:17:14.145Z,26.29
2022-08-01T09:18:14.107Z,26.41
2022-08-01T09:19:15.992Z,26.50
2022-08-01T09:20:14.057Z,26.46
2022-08-01T09:21:14.010Z,26.66
2022-08-01T09:22:13.982Z,26.61
2022-08-01T09:23:13.948Z,26.60
2022-08-01T09:24:13.914Z,26.31
2022-08-01T09:25:13.885Z,25.93
2022-08-01T09:26:13.857Z,25.75
2022-08-01T09:27:13.819Z,25.64
2022-08-01T09:28:13.794Z,25.79
2022-08-01T09:29:13.753Z,25.75
2022-08-01T09:30:13.978Z,25.64
2022-08-01T09:31:13.689Z,25.64
2022-08-01T09:32:16.412Z,25.51
2022-08-01T09:33:21.503Z,25.49
2022-08-01T09:34:13.587Z,25.44
2022-08-01T09:35:13.556Z,25.46
2022-08-01T09:36:13.523Z,25.97
2022-08-01T09:37:13.500Z,26.66
2022-08-01T09:38:13.461Z,27.08
2022-08-01T09:39:13.425Z,27.21
2022-08-01T09:40:13.393Z,27.46
2022-08-01T09:41:14.267Z,27.98
2022-08-01T09:42:13.343Z,27.91
2022-08-01T09:43:14.863Z,27.68
2022-08-01T09:44:13.263Z,27.25
2022-08-01T09:45:23.330Z,27.02
2022-08-01T09:46:13.201Z,27.08
2022-08-01T09:47:15.366Z,27.27
2022-08-01T09:48:13.145Z,27.35
2022-08-01T09:49:13.204Z,27.42
2022-08-01T09:50:13.073Z,27.50
2022-08-01T09:51:13.059Z,27.80
2022-08-01T09:52:13.012Z,27.93
2022-08-01T09:53:30.238Z,28.05
2022-08-01T09:54:12.946Z,27.90
2022-08-01T09:55:12.915Z,27.99
2022-08-01T09:56:12.887Z,28.23
2022-08-01T09:57:12.858Z,28.36
2022-08-01T09:58:12.829Z,28.27
2022-08-01T09:59:12.793Z,28.28
2022-08-01T10:00:24.243Z,29.08
2022-08-01T10:01:12.728Z,29.18
2022-08-01T10:02:12.701Z,28.46
2022-08-01T10:03:12.751Z,28.32
2022-08-01T10:04:12.664Z,28.25
2022-08-01T10:05:20.921Z,28.05
2022-08-01T10:06:12.574Z,27.96
2022-08-01T10:07:12.542Z,27.96
2022-08-01T10:08:12.512Z,28.50
2022-08-01T10:09:12.492Z,29.02
2022-08-01T10:10:12.453Z,29.32
2022-08-01T10:11:12.545Z,28.92
2022-08-01T10:12:15.985Z,28.52
2022-08-01T10:13:12.361Z,28.21
2022-08-01T10:14:12.343Z,28.36
2022-08-01T10:15:12.316Z,28.67
2022-08-01T10:16:12.355Z,29.12
2022-08-01T10:17:12.238Z,29.49
2022-08-01T10:18:16.584Z,29.47
2022-08-01T10:19:15.509Z,29.78
2022-08-01T10:20:28.838Z,29.63
2022-08-01T10:21:12.130Z,29.25
2022-08-01T10:22:12.089Z,28.94
2022-08-01T10:23:12.060Z,28.89
2022-08-01T10:24:12.031Z,29.08
2022-08-01T10:25:12.014Z,29.39
2022-08-01T10:26:11.971Z,29.32
2022-08-01T10:27:12.711Z,29.41
2022-08-01T10:28:11.913Z,29.44
2022-08-01T10:29:24.353Z,29.33
2022-08-01T10:30:19.447Z,29.20
2022-08-01T10:31:12.534Z,29.37
2022-08-01T10:32:11.796Z,29.66
2022-08-01T10:33:11.781Z,29.99
2022-08-01T10:34:11.737Z,29.97
2022-08-01T10:35:15.073Z,29.29
2022-08-01T10:36:11.682Z,28.69
2022-08-01T10:37:11.657Z,28.38
2022-08-01T10:38:13.741Z,28.15
2022-08-01T10:39:11.607Z,28.39
2022-08-01T10:40:29.215Z,28.82
2022-08-01T10:41:11.539Z,29.23
2022-08-01T10:42:15.658Z,29.27
2022-08-01T10:43:11.481Z,29.29
2022-08-01T10:44:11.453Z,29.18
2022-08-01T10:45:11.439Z,29.30
2022-08-01T10:46:11.394Z,29.71
2022-08-01T10:47:11.371Z,30.06
2022-08-01T10:48:11.339Z,29.69
2022-08-01T10:49:11.326Z,29.39
2022-08-01T10:50:11.280Z,28.76
2022-08-01T10:51:17.861Z,28.32
2022-08-01T10:52:11.234Z,28.15
2022-08-01T10:53:16.011Z,27.88
2022-08-01T10:54:11.168Z,27.71
2022-08-01T10:55:11.140Z,27.63
2022-08-01T10:56:13.181Z,27.59
2022-08-01T10:57:11.080Z,27.63
2022-08-01T10:58:11.052Z,27.63
2022-08-01T10:59:11.817Z,27.53
2022-08-01T11:00:10.988Z,27.30
2022-08-01T11:01:11.021Z,27.03
2022-08-01T11:02:10.954Z,26.94
2022-08-01T11:03:10.901Z,26.83
2022-08-01T11:04:16.014Z,26.71
2022-08-01T11:05:10.839Z,26.78
2022-08-01T11:06:10.821Z,26.91
2022-08-01T11:07:11.128Z,26.66
2022-08-01T11:08:10.778Z,26.83
2022-08-01T11:09:10.715Z,27.05
2022-08-01T11:10:14.878Z,27.31
2022-08-01T11:11:10.652Z,27.39
2022-08-01T11:12:13.641Z,27.18
2022-08-01T11:13:10.590Z,27.13
2022-08-01T11:14:10.686Z,27.09
2022-08-01T11:15:10.537Z,26.96
2022-08-01T11:16:16.410Z,26.86
2022-08-01T11:17:10.465Z,27.16
2022-08-01T11:18:10.434Z,27.38
2022-08-01T11:19:10.405Z,27.31
2022-08-01T11:20:10.383Z,27.49
2022-08-01T11:21:58.606Z,27.65
2022-08-01T11:22:10.310Z,27.61
2022-08-01T11:23:10.280Z,27.39
2022-08-01T11:24:10.247Z,27.55
2022-08-01T11:25:10.217Z,27.59
2022-08-01T11:26:10.696Z,27.63
2022-08-01T11:27:10.156Z,27.66
2022-08-01T11:28:14.824Z,27.77
2022-08-01T11:29:19.897Z,27.93
2022-08-01T11:30:12.894Z,28.28
2022-08-01T11:31:11.300Z,28.38
2022-08-01T11:32:09.999Z,28.20
2022-08-01T11:33:10.399Z,28.33
2022-08-01T11:34:09.935Z,28.27
2022-08-01T11:35:09.904Z,28.48
2022-08-01T11:36:09.876Z,28.82
2022-08-01T11:37:10.215Z,28.89
2022-08-01T11:38:09.811Z,28.72
2022-08-01T11:39:13.546Z,28.88
2022-08-01T11:40:09.754Z,29.00
2022-08-01T11:41:09.723Z,29.11
2022-08-01T11:42:09.692Z,29.17
2022-08-01T11:43:09.672Z,29.21
2022-08-01T11:44:09.636Z,29.32
2022-08-01T11:45:09.604Z,29.21
2022-08-01T11:46:09.605Z,29.25
2022-08-01T11:47:10.607Z,29.35
2022-08-01T11:48:10.168Z,29.29
2022-08-01T11:49:09.540Z,29.15
2022-08-01T11:50:09.456Z,29.23
2022-08-01T11:51:09.428Z,29.33
2022-08-01T11:52:09.401Z,29.51
2022-08-01T11:53:09.370Z,29.42
2022-08-01T11:54:09.344Z,29.66
2022-08-01T11:55:10.369Z,29.52
2022-08-01T11:56:09.286Z,29.78
2022-08-01T11:57:10.220Z,30.07
2022-08-01T11:58:22.250Z,30.18
2022-08-01T11:59:15.079Z,30.15
2022-08-01T12:00:09.256Z,29.76
2022-08-01T12:01:09.218Z,29.63
2022-08-01T12:02:09.164Z,29.35
2022-08-01T12:03:09.092Z,29.00
2022-08-01T12:04:09.062Z,28.65
2022-08-01T12:05:11.640Z,28.33
2022-08-01T12:06:09.008Z,28.14
2022-08-01T12:07:09.203Z,28.11
2022-08-01T12:08:08.947Z,28.06
2022-08-01T12:09:12.046Z,27.90
2022-08-01T12:10:08.890Z,27.80
2022-08-01T12:11:08.879Z,27.84
2022-08-01T12:12:08.839Z,27.91
2022-08-01T12:13:08.802Z,27.88
2022-08-01T12:14:08.773Z,27.80
2022-08-01T12:15:10.132Z,27.86
2022-08-01T12:16:08.806Z,27.71
2022-08-01T12:17:09.088Z,27.74
2022-08-01T12:18:08.913Z,27.62
2022-08-01T12:19:11.751Z,27.88
2022-08-01T12:20:08.590Z,27.76
2022-08-01T12:21:08.557Z,27.76
2022-08-01T12:22:08.527Z,27.96
2022-08-01T12:23:08.509Z,28.15
2022-08-01T12:24:08.483Z,28.23
2022-08-01T12:25:08.438Z,28.36
2022-08-01T12:26:08.404Z,28.30
2022-08-01T12:27:08.820Z,28.58
2022-08-01T12:28:08.344Z,28.58
2022-08-01T12:29:08.334Z,28.70
2022-08-01T12:30:08.283Z,28.76
2022-08-01T12:31:08.253Z,28.74
2022-08-01T12:32:08.230Z,28.60
2022-08-01T12:33:08.195Z,28.67
2022-08-01T12:34:08.169Z,28.89
2022-08-01T12:35:08.155Z,29.11
2022-08-01T12:36:08.107Z,29.15
2022-08-01T12:37:08.185Z,29.07
2022-08-01T12:38:08.048Z,29.20
2022-08-01T12:39:08.023Z,28.83
2022-08-01T12:40:07.992Z,28.52
2022-08-01T12:41:07.975Z,28.48
2022-08-01T12:42:07.967Z,28.38
2022-08-01T12:43:08.827Z,28.21
2022-08-01T12:44:07.876Z,27.95
2022-08-01T12:45:07.846Z,27.78
2022-08-01T12:46:07.830Z,27.58
2022-08-01T12:47:08.225Z,27.42
2022-08-01T12:48:07.765Z,27.66
2022-08-01T12:49:07.797Z,27.76
2022-08-01T12:50:07.701Z,27.59
2022-08-01T12:51:07.671Z,27.20
2022-08-01T12:52:12.870Z,27.13
2022-08-01T12:53:07.611Z,27.31
2022-08-01T12:54:07.584Z,27.39